createdAt,value
2023-01-23T00:00:32.204Z,1017.95
2023-01-23T00:01:32.193Z,1017.99
2023-01-23T00:02:32.226Z,1018.01
2023-01-23T00:03:32.183Z,1017.95
2023-01-23T00:04:32.144Z,1017.99
2023-01-23T00:05:32.134Z,1017.95
2023-01-23T00:06:32.131Z,1017.95
2023-01-23T00:07:32.116Z,1017.97
2023-01-23T00:08:32.106Z,1017.98
2023-01-23T00:09:32.085Z,1017.97
2023-01-23T00:10:32.065Z,1018.03
2023-01-23T00:11:32.097Z,1017.96
2023-01-23T00:12:32.057Z,1017.95
2023-01-23T00:13:32.043Z,1017.98
2023-01-23T00:14:32.014Z,1017.97
2023-01-23T00:15:32.026Z,1018.00
2023-01-23T00:16:31.994Z,1018.02
2023-01-23T00:17:31.983Z,1018.05
2023-01-23T00:18:31.972Z,1018.03
2023-01-23T00:19:31.951Z,1018.05
2023-01-23T00:20:31.955Z,1018.00
2023-01-23T00:21:31.925Z,1017.99
2023-01-23T00:22:31.923Z,1018.04
2023-01-23T00:23:31.925Z,1018.02
2023-01-23T00:24:31.882Z,1018.03
2023-01-23T00:25:31.870Z,1018.00
2023-01-23T00:26:31.856Z,1017.97
2023-01-23T00:27:31.857Z,1018.01
2023-01-23T00:28:31.869Z,1018.03
2023-01-23T00:29:31.826Z,1018.02
2023-01-23T00:30:31.839Z,1017.99
2023-01-23T00:31:31.844Z,1018.02
2023-01-23T00:32:31.782Z,1017.99
2023-01-23T00:33:31.791Z,1017.97
2023-01-23T00:34:31.754Z,1018.01
2023-01-23T00:35:31.742Z,1017.95
2023-01-23T00:36:31.730Z,1017.95
2023-01-23T00:37:31.722Z,1017.97
2023-01-23T00:38:31.727Z,1018.01
2023-01-23T00:39:31.688Z,1017.96
2023-01-23T00:40:31.678Z,1018.05
2023-01-23T00:41:31.680Z,1018.07
2023-01-23T00:42:31.653Z,1018.05
2023-01-23T00:43:31.662Z,1018.09
2023-01-23T00:44:31.616Z,1018.05
2023-01-23T00:45:32.294Z,1018.08
2023-01-23T00:46:31.676Z,1018.13
2023-01-23T00:47:31.583Z,1018.09
2023-01-23T00:48:31.590Z,1018.07
2023-01-23T00:49:31.554Z,1018.12
2023-01-23T00:50:31.561Z,1018.13
2023-01-23T00:51:31.525Z,1018.16
2023-01-23T00:52:31.519Z,1018.14
2023-01-23T00:53:31.518Z,1018.20
2023-01-23T00:54:31.493Z,1018.18
2023-01-23T00:55:31.488Z,1018.21
2023-01-23T00:56:31.482Z,1018.16
2023-01-23T00:57:31.450Z,1018.15
2023-01-23T00:58:31.462Z,1018.24
2023-01-23T00:59:31.427Z,1018.28
2023-01-23T01:00:31.423Z,1018.24
2023-01-23T01:01:31.480Z,1018.22
2023-01-23T01:02:31.429Z,1018.28
2023-01-23T01:03:31.388Z,1018.26
2023-01-23T01:04:31.371Z,1018.30
2023-01-23T01:05:31.345Z,1018.32
2023-01-23T01:06:31.333Z,1018.35
2023-01-23T01:07:31.321Z,1018.37
2023-01-23T01:08:31.333Z,1018.38
2023-01-23T01:09:31.289Z,1018.38
2023-01-23T01:10:31.289Z,1018.39
2023-01-23T01:11:31.271Z,1018.34
2023-01-23T01:12:31.271Z,1018.40
2023-01-23T01:13:31.261Z,1018.42
2023-01-23T01:14:31.231Z,1018.39
2023-01-23T01:15:31.217Z,1018.41
2023-01-23T01:16:31.287Z,1018.41
2023-01-23T01:17:31.187Z,1018.43
2023-01-23T01:18:31.207Z,1018.43
2023-01-23T01:19:31.175Z,1018.43
2023-01-23T01:20:31.158Z,1018.40
2023-01-23T01:21:31.162Z,1018.48
2023-01-23T01:22:31.144Z,1018.40
2023-01-23T01:23:31.133Z,1018.45
2023-01-23T01:24:31.109Z,1018.44
2023-01-23T01:25:31.091Z,1018.47
2023-01-23T01:26:31.086Z,1018.49
2023-01-23T01:27:31.056Z,1018.47
2023-01-23T01:28:31.077Z,1018.47
2023-01-23T01:29:31.041Z,1018.50
2023-01-23T01:30:31.033Z,1018.42
2023-01-23T01:31:31.126Z,1018.41
2023-01-23T01:32:31.004Z,1018.49
2023-01-23T01:33:30.987Z,1018.44
2023-01-23T01:34:30.978Z,1018.44
2023-01-23T01:35:30.966Z,1018.44
2023-01-23T01:36:30.949Z,1018.53
2023-01-23T01:37:30.931Z,1018.55
2023-01-23T01:38:30.933Z,1018.57
2023-01-23T01:39:30.904Z,1018.55
2023-01-23T01:40:30.906Z,1018.57
2023-01-23T01:41:30.883Z,1018.57
2023-01-23T01:42:30.870Z,1018.62
2023-01-23T01:43:30.862Z,1018.63
2023-01-23T01:44:30.851Z,1018.65
2023-01-23T01:45:30.831Z,1018.68
2023-01-23T01:46:30.863Z,1018.65
2023-01-23T01:47:30.809Z,1018.67
2023-01-23T01:48:30.807Z,1018.70
2023-01-23T01:49:30.772Z,1018.72
2023-01-23T01:50:30.775Z,1018.69
2023-01-23T01:51:30.751Z,1018.76
2023-01-23T01:52:30.749Z,1018.77
2023-01-23T01:53:30.740Z,1018.76
2023-01-23T01:54:30.785Z,1018.74
2023-01-23T01:55:30.699Z,1018.77
2023-01-23T01:56:30.692Z,1018.82
2023-01-23T01:57:30.681Z,1018.79
2023-01-23T01:58:30.668Z,1018.74
2023-01-23T01:59:30.649Z,1018.73
2023-01-23T02:00:30.660Z,1018.76
2023-01-23T02:01:30.627Z,1018.74
2023-01-23T02:02:30.618Z,1018.73
2023-01-23T02:03:30.606Z,1018.76
2023-01-23T02:04:30.591Z,1018.74
2023-01-23T02:05:30.579Z,1018.72
2023-01-23T02:06:30.566Z,1018.78
2023-01-23T02:07:30.549Z,1018.72
2023-01-23T02:08:30.546Z,1018.75
2023-01-23T02:09:30.524Z,1018.69
2023-01-23T02:10:30.510Z,1018.81
2023-01-23T02:11:30.508Z,1018.79
2023-01-23T02:12:30.485Z,1018.80
2023-01-23T02:13:30.501Z,1018.81
2023-01-23T02:14:30.467Z,1018.81
2023-01-23T02:15:30.435Z,1018.85
2023-01-23T02:16:30.451Z,1018.86
2023-01-23T02:17:30.404Z,1018.85
2023-01-23T02:18:30.417Z,1018.88
2023-01-23T02:19:30.400Z,1018.95
2023-01-23T02:20:30.374Z,1018.92
2023-01-23T02:21:30.361Z,1018.89
2023-01-23T02:22:30.342Z,1018.91
2023-01-23T02:23:30.352Z,1018.93
2023-01-23T02:24:30.324Z,1018.94
2023-01-23T02:25:30.308Z,1018.92
2023-01-23T02:26:30.302Z,1018.91
2023-01-23T02:27:30.290Z,1018.90
2023-01-23T02:28:30.306Z,1018.92
2023-01-23T02:29:30.261Z,1018.97
2023-01-23T02:30:30.250Z,1018.96
2023-01-23T02:31:30.354Z,1018.92
2023-01-23T02:32:30.229Z,1018.94
2023-01-23T02:33:30.632Z,1018.92
2023-01-23T02:34:30.197Z,1018.90
2023-01-23T02:35:30.186Z,1018.93
2023-01-23T02:36:30.178Z,1018.90
2023-01-23T02:37:30.150Z,1018.95
2023-01-23T02:38:30.148Z,1019.01
2023-01-23T02:39:30.146Z,1018.97
2023-01-23T02:40:30.121Z,1018.95
2023-01-23T02:41:30.098Z,1018.96
2023-01-23T02:42:30.087Z,1018.97
2023-01-23T02:43:30.092Z,1019.04
2023-01-23T02:44:30.074Z,1019.04
2023-01-23T02:45:30.118Z,1018.99
2023-01-23T02:46:30.040Z,1019.02
2023-01-23T02:47:30.032Z,1019.07
2023-01-23T02:48:30.030Z,1019.02
2023-01-23T02:49:30.003Z,1019.04
2023-01-23T02:50:29.995Z,1019.06
2023-01-23T02:51:29.965Z,1019.00
2023-01-23T02:52:29.956Z,1019.01
2023-01-23T02:53:29.957Z,1019.02
2023-01-23T02:54:29.933Z,1018.99
2023-01-23T02:55:29.913Z,1019.05
2023-01-23T02:56:29.913Z,1019.07
2023-01-23T02:57:29.885Z,1019.06
2023-01-23T02:58:29.884Z,1019.06
2023-01-23T02:59:29.864Z,1019.10
2023-01-23T03:00:29.853Z,1019.07
2023-01-23T03:01:29.852Z,1019.03
2023-01-23T03:02:29.930Z,1019.02
2023-01-23T03:03:29.833Z,1019.08
2023-01-23T03:04:29.802Z,1019.08
2023-01-23T03:05:29.785Z,1019.03
2023-01-23T03:06:29.773Z,1019.10
2023-01-23T03:07:29.752Z,1019.09
2023-01-23T03:08:29.754Z,1019.05
2023-01-23T03:09:29.737Z,1019.06
2023-01-23T03:10:29.729Z,1019.08
2023-01-23T03:11:29.713Z,1019.08
2023-01-23T03:12:29.707Z,1019.09
2023-01-23T03:13:29.707Z,1019.14
2023-01-23T03:14:29.677Z,1019.13
2023-01-23T03:15:29.658Z,1019.12
2023-01-23T03:16:29.718Z,1019.09
2023-01-23T03:17:29.648Z,1019.04
2023-01-23T03:18:29.633Z,1019.09
2023-01-23T03:19:29.601Z,1019.07
2023-01-23T03:20:29.600Z,1019.05
2023-01-23T03:21:29.569Z,1019.05
2023-01-23T03:22:29.572Z,1019.09
2023-01-23T03:23:29.558Z,1019.07
2023-01-23T03:24:29.539Z,1019.10
2023-01-23T03:25:29.528Z,1019.11
2023-01-23T03:26:29.530Z,1019.10
2023-01-23T03:27:29.496Z,1019.10
2023-01-23T03:28:29.496Z,1019.10
2023-01-23T03:29:29.471Z,1019.11
2023-01-23T03:30:29.461Z,1019.07
2023-01-23T03:31:29.481Z,1019.07
2023-01-23T03:32:29.435Z,1019.07
2023-01-23T03:33:29.443Z,1019.10
2023-01-23T03:34:29.428Z,1019.11
2023-01-23T03:35:29.391Z,1019.09
2023-01-23T03:36:29.402Z,1019.11
2023-01-23T03:37:29.365Z,1019.12
2023-01-23T03:38:29.372Z,1019.12
2023-01-23T03:39:29.341Z,1019.15
2023-01-23T03:40:29.324Z,1019.11
2023-01-23T03:41:29.321Z,1019.24
2023-01-23T03:42:29.309Z,1019.16
2023-01-23T03:43:29.302Z,1019.23
2023-01-23T03:44:29.273Z,1019.17
2023-01-23T03:45:29.303Z,1019.18
2023-01-23T03:46:29.253Z,1019.16
2023-01-23T03:47:29.233Z,1019.20
2023-01-23T03:48:29.243Z,1019.15
2023-01-23T03:49:29.207Z,1019.17
2023-01-23T03:50:29.209Z,1019.18
2023-01-23T03:51:29.181Z,1019.16
2023-01-23T03:52:29.173Z,1019.16
2023-01-23T03:53:29.172Z,1019.17
2023-01-23T03:54:29.142Z,1019.24
2023-01-23T03:55:29.130Z,1019.21
2023-01-23T03:56:29.137Z,1019.18
2023-01-23T03:57:29.100Z,1019.24
2023-01-23T03:58:29.100Z,1019.22
2023-01-23T03:59:29.080Z,1019.22
2023-01-23T04:00:29.068Z,1019.22
2023-01-23T04:01:29.072Z,1019.23
2023-01-23T04:02:29.133Z,1019.23
2023-01-23T04:03:29.040Z,1019.20
2023-01-23T04:04:29.028Z,1019.24
2023-01-23T04:05:29.006Z,1019.19
2023-01-23T04:06:28.988Z,1019.19
2023-01-23T04:07:28.969Z,1019.16
2023-01-23T04:08:28.979Z,1019.15
2023-01-23T04:09:28.951Z,1019.16
2023-01-23T04:10:28.949Z,1019.11
2023-01-23T04:11:28.917Z,1019.09
2023-01-23T04:12:28.916Z,1019.09
2023-01-23T04:13:28.897Z,1019.08
2023-01-23T04:14:28.886Z,1019.12
2023-01-23T04:15:28.871Z,1019.11
2023-01-23T04:16:28.999Z,1019.11
2023-01-23T04:17:28.835Z,1019.12
2023-01-23T04:18:28.865Z,1019.15
2023-01-23T04:19:28.820Z,1019.18
2023-01-23T04:20:28.806Z,1019.12
2023-01-23T04:21:28.808Z,1019.14
2023-01-23T04:22:28.785Z,1019.13
2023-01-23T04:23:28.773Z,1019.16
2023-01-23T04:24:28.762Z,1019.17
2023-01-23T04:25:28.734Z,1019.17
2023-01-23T04:26:28.727Z,1019.14
2023-01-23T04:27:28.714Z,1019.21
2023-01-23T04:28:28.705Z,1019.23
2023-01-23T04:29:28.688Z,1019.24
2023-01-23T04:30:28.723Z,1019.19
2023-01-23T04:31:28.731Z,1019.20
2023-01-23T04:32:28.651Z,1019.18
2023-01-23T04:33:28.645Z,1019.15
2023-01-23T04:34:28.625Z,1019.20
2023-01-23T04:35:28.604Z,1019.15
2023-01-23T04:36:28.599Z,1019.16
2023-01-23T04:37:28.580Z,1019.24
2023-01-23T04:38:28.599Z,1019.24
2023-01-23T04:39:28.559Z,1019.25
2023-01-23T04:40:28.541Z,1019.26
2023-01-23T04:41:28.540Z,1019.30
2023-01-23T04:42:28.520Z,1019.31
2023-01-23T04:43:28.519Z,1019.34
2023-01-23T04:44:28.502Z,1019.34
2023-01-23T04:45:28.477Z,1019.37
2023-01-23T04:46:28.469Z,1019.39
2023-01-23T04:47:28.461Z,1019.47
2023-01-23T04:48:28.449Z,1019.46
2023-01-23T04:49:28.418Z,1019.52
2023-01-23T04:50:28.419Z,1019.59
2023-01-23T04:51:28.485Z,1019.61
2023-01-23T04:52:28.387Z,1019.62
2023-01-23T04:53:28.378Z,1019.61
2023-01-23T04:54:28.361Z,1019.59
2023-01-23T04:55:28.340Z,1019.64
2023-01-23T04:56:28.336Z,1019.58
2023-01-23T04:57:28.335Z,1019.57
2023-01-23T04:58:28.341Z,1019.61
2023-01-23T04:59:28.287Z,1019.61
2023-01-23T05:00:28.285Z,1019.62
2023-01-23T05:01:28.298Z,1019.66
2023-01-23T05:02:28.316Z,1019.67
2023-01-23T05:03:28.255Z,1019.66
2023-01-23T05:04:28.236Z,1019.66
2023-01-23T05:05:28.227Z,1019.62
2023-01-23T05:06:28.209Z,1019.66
2023-01-23T05:07:28.199Z,1019.69
2023-01-23T05:08:28.188Z,1019.74
2023-01-23T05:09:28.168Z,1019.71
2023-01-23T05:10:28.160Z,1019.74
2023-01-23T05:11:28.141Z,1019.73
2023-01-23T05:12:28.133Z,1019.77
2023-01-23T05:13:28.123Z,1019.80
2023-01-23T05:14:28.105Z,1019.77
2023-01-23T05:15:30.058Z,1019.81
2023-01-23T05:16:28.084Z,1019.78
2023-01-23T05:17:28.074Z,1019.86
2023-01-23T05:18:28.062Z,1019.86
2023-01-23T05:19:28.049Z,1019.87
2023-01-23T05:20:28.021Z,1019.91
2023-01-23T05:21:28.016Z,1019.92
2023-01-23T05:22:27.991Z,1019.91
2023-01-23T05:23:28.002Z,1019.89
2023-01-23T05:24:27.961Z,1019.86
2023-01-23T05:25:27.972Z,1019.92
2023-01-23T05:26:27.942Z,1019.91
2023-01-23T05:27:27.938Z,1019.91
2023-01-23T05:28:27.928Z,1019.88
2023-01-23T05:29:27.913Z,1019.83
2023-01-23T05:30:27.928Z,1019.87
2023-01-23T05:31:27.975Z,1019.86
2023-01-23T05:32:27.870Z,1019.82
2023-01-23T05:33:27.863Z,1019.82
2023-01-23T05:34:27.837Z,1019.86
2023-01-23T05:35:27.828Z,1019.82
2023-01-23T05:36:27.823Z,1019.84
2023-01-23T05:37:27.800Z,1019.80
2023-01-23T05:38:27.802Z,1019.81
2023-01-23T05:39:27.778Z,1019.83
2023-01-23T05:40:27.756Z,1019.82
2023-01-23T05:41:27.750Z,1019.83
2023-01-23T05:42:27.738Z,1019.90
2023-01-23T05:43:27.734Z,1019.91
2023-01-23T05:44:27.713Z,1019.92
2023-01-23T05:45:27.707Z,1019.92
2023-01-23T05:46:27.780Z,1019.97
2023-01-23T05:47:27.681Z,1020.01
2023-01-23T05:48:27.664Z,1020.03
2023-01-23T05:49:27.650Z,1020.00
2023-01-23T05:50:27.634Z,1020.00
2023-01-23T05:51:27.625Z,1020.05
2023-01-23T05:52:27.610Z,1020.07
2023-01-23T05:53:27.626Z,1020.04
2023-01-23T05:54:27.579Z,1020.02
2023-01-23T05:55:27.563Z,1020.02
2023-01-23T05:56:27.577Z,1020.04
2023-01-23T05:57:27.549Z,1020.02
2023-01-23T05:58:27.543Z,1020.04
2023-01-23T05:59:27.516Z,1020.01
2023-01-23T06:00:27.493Z,1020.05
2023-01-23T06:01:27.497Z,1020.04
2023-01-23T06:02:27.508Z,1020.06
2023-01-23T06:03:27.517Z,1020.09
2023-01-23T06:04:27.458Z,1020.09
2023-01-23T06:05:27.431Z,1020.14
2023-01-23T06:06:27.418Z,1020.08
2023-01-23T06:07:27.422Z,1020.07
2023-01-23T06:08:27.397Z,1020.09
2023-01-23T06:09:27.395Z,1020.08
2023-01-23T06:10:27.371Z,1020.10
2023-01-23T06:11:27.367Z,1020.10
2023-01-23T06:12:27.348Z,1020.08
2023-01-23T06:13:27.346Z,1020.04
2023-01-23T06:14:27.310Z,1020.08
2023-01-23T06:15:27.300Z,1020.14
2023-01-23T06:16:27.288Z,1020.08
2023-01-23T06:17:27.280Z,1020.09
2023-01-23T06:18:27.275Z,1020.10
2023-01-23T06:19:27.264Z,1020.04
2023-01-23T06:20:27.234Z,1020.10
2023-01-23T06:21:27.228Z,1020.05
2023-01-23T06:22:27.209Z,1020.11
2023-01-23T06:23:27.215Z,1020.12
2023-01-23T06:24:27.190Z,1020.09
2023-01-23T06:25:27.182Z,1020.11
2023-01-23T06:26:27.157Z,1020.14
2023-01-23T06:27:27.156Z,1020.08
2023-01-23T06:28:27.150Z,1020.11
2023-01-23T06:29:27.132Z,1020.12
2023-01-23T06:30:27.106Z,1020.13
2023-01-23T06:31:27.201Z,1020.14
2023-01-23T06:32:27.087Z,1020.19
2023-01-23T06:33:27.153Z,1020.22
2023-01-23T06:34:27.061Z,1020.18
2023-01-23T06:35:27.043Z,1020.20
2023-01-23T06:36:27.021Z,1020.23
2023-01-23T06:37:27.013Z,1020.21
2023-01-23T06:38:27.026Z,1020.27
2023-01-23T06:39:27.016Z,1020.25
2023-01-23T06:40:26.974Z,1020.31
2023-01-23T06:41:26.963Z,1020.28
2023-01-23T06:42:26.955Z,1020.32
2023-01-23T06:43:26.957Z,1020.35
2023-01-23T06:44:26.920Z,1020.34
2023-01-23T06:45:26.916Z,1020.32
2023-01-23T06:46:26.942Z,1020.37
2023-01-23T06:47:26.881Z,1020.40
2023-01-23T06:48:26.885Z,1020.39
2023-01-23T06:49:26.859Z,1020.41
2023-01-23T06:50:26.840Z,1020.39
2023-01-23T06:51:26.871Z,1020.38
2023-01-23T06:52:26.817Z,1020.47
2023-01-23T06:53:26.820Z,1020.44
2023-01-23T06:54:26.790Z,1020.45
2023-01-23T06:55:26.785Z,1020.51
2023-01-23T06:56:26.763Z,1020.56
2023-01-23T06:57:26.767Z,1020.53
2023-01-23T06:58:26.747Z,1020.57
2023-01-23T06:59:26.734Z,1020.59
2023-01-23T07:00:26.709Z,1020.67
2023-01-23T07:01:26.756Z,1020.67
2023-01-23T07:02:26.704Z,1020.71
2023-01-23T07:03:26.699Z,1020.65
2023-01-23T07:04:26.669Z,1020.74
2023-01-23T07:05:26.678Z,1020.69
2023-01-23T07:06:26.632Z,1020.75
2023-01-23T07:07:26.628Z,1020.76
2023-01-23T07:08:26.664Z,1020.74
2023-01-23T07:09:26.598Z,1020.79
2023-01-23T07:10:26.583Z,1020.79
2023-01-23T07:11:26.563Z,1020.83
2023-01-23T07:12:26.543Z,1020.87
2023-01-23T07:13:26.555Z,1020.85
2023-01-23T07:14:26.529Z,1020.89
2023-01-23T07:15:26.514Z,1020.90
2023-01-23T07:16:26.547Z,1020.88
2023-01-23T07:17:26.505Z,1020.86
2023-01-23T07:18:26.492Z,1020.84
2023-01-23T07:19:26.466Z,1020.88
2023-01-23T07:20:26.444Z,1020.85
2023-01-23T07:21:26.438Z,1020.81
2023-01-23T07:22:26.427Z,1020.82
2023-01-23T07:23:26.428Z,1020.90
2023-01-23T07:24:26.393Z,1020.88
2023-01-23T07:25:26.393Z,1020.92
2023-01-23T07:26:26.368Z,1020.96
2023-01-23T07:27:26.371Z,1020.97
2023-01-23T07:28:26.372Z,1021.06
2023-01-23T07:29:26.336Z,1021.05
2023-01-23T07:30:26.364Z,1021.00
2023-01-23T07:31:26.403Z,1021.03
2023-01-23T07:32:26.302Z,1021.07
2023-01-23T07:33:26.303Z,1021.05
2023-01-23T07:34:26.260Z,1021.11
2023-01-23T07:35:26.283Z,1021.10
2023-01-23T07:36:26.264Z,1021.13
2023-01-23T07:37:26.241Z,1021.13
2023-01-23T07:38:26.223Z,1021.14
2023-01-23T07:39:26.210Z,1021.13
2023-01-23T07:40:26.179Z,1021.17
2023-01-23T07:41:26.185Z,1021.19
2023-01-23T07:42:26.160Z,1021.20
2023-01-23T07:43:26.175Z,1021.21
2023-01-23T07:44:26.146Z,1021.20
2023-01-23T07:45:26.137Z,1021.16
2023-01-23T07:46:26.136Z,1021.22
2023-01-23T07:47:26.097Z,1021.22
2023-01-23T07:48:26.115Z,1021.19
2023-01-23T07:49:26.068Z,1021.23
2023-01-23T07:50:26.055Z,1021.23
2023-01-23T07:51:26.114Z,1021.19
2023-01-23T07:52:26.047Z,1021.25
2023-01-23T07:53:26.025Z,1021.22
2023-01-23T07:54:26.023Z,1021.30
2023-01-23T07:55:26.010Z,1021.25
2023-01-23T07:56:25.978Z,1021.28
2023-01-23T07:57:25.996Z,1021.29
2023-01-23T07:58:25.962Z,1021.32
2023-01-23T07:59:25.954Z,1021.34
2023-01-23T08:00:29.220Z,1021.36
2023-01-23T08:01:25.921Z,1021.34
2023-01-23T08:02:25.907Z,1021.33
2023-01-23T08:03:25.901Z,1021.33
2023-01-23T08:04:25.887Z,1021.35
2023-01-23T08:05:25.865Z,1021.37
2023-01-23T08:06:25.843Z,1021.37
2023-01-23T08:07:25.833Z,1021.38
2023-01-23T08:08:25.835Z,1021.39
2023-01-23T08:09:25.813Z,1021.43
2023-01-23T08:10:25.795Z,1021.40
2023-01-23T08:11:25.791Z,1021.40
2023-01-23T08:12:25.774Z,1021.36
2023-01-23T08:13:25.778Z,1021.44
2023-01-23T08:14:25.742Z,1021.39
2023-01-23T08:15:25.741Z,1021.44
2023-01-23T08:16:25.764Z,1021.47
2023-01-23T08:17:25.719Z,1021.48
2023-01-23T08:18:25.701Z,1021.44
2023-01-23T08:19:25.680Z,1021.48
2023-01-23T08:20:25.686Z,1021.46
2023-01-23T08:21:25.663Z,1021.44
2023-01-23T08:22:25.652Z,1021.50
2023-01-23T08:23:25.643Z,1021.49
2023-01-23T08:24:25.617Z,1021.52
2023-01-23T08:25:25.610Z,1021.51
2023-01-23T08:26:25.593Z,1021.49
2023-01-23T08:27:25.580Z,1021.55
2023-01-23T08:28:25.568Z,1021.49
2023-01-23T08:29:25.548Z,1021.58
2023-01-23T08:30:25.551Z,1021.53
2023-01-23T08:31:25.586Z,1021.55
2023-01-23T08:32:25.519Z,1021.58
2023-01-23T08:33:25.560Z,1021.59
2023-01-23T08:34:25.498Z,1021.54
2023-01-23T08:35:25.485Z,1021.60
2023-01-23T08:36:25.497Z,1021.64
2023-01-23T08:37:25.456Z,1021.61
2023-01-23T08:38:25.464Z,1021.68
2023-01-23T08:39:25.437Z,1021.70
2023-01-23T08:40:25.445Z,1021.66
2023-01-23T08:41:25.395Z,1021.67
2023-01-23T08:42:25.388Z,1021.66
2023-01-23T08:43:25.385Z,1021.66
2023-01-23T08:44:25.364Z,1021.64
2023-01-23T08:45:25.378Z,1021.64
2023-01-23T08:46:25.334Z,1021.63
2023-01-23T08:47:25.328Z,1021.65
2023-01-23T08:48:25.312Z,1021.64
2023-01-23T08:49:25.306Z,1021.62
2023-01-23T08:50:25.309Z,1021.63
2023-01-23T08:51:25.336Z,1021.66
2023-01-23T08:52:25.242Z,1021.64
2023-01-23T08:53:25.276Z,1021.61
2023-01-23T08:54:25.224Z,1021.67
2023-01-23T08:55:25.210Z,1021.66
2023-01-23T08:56:25.211Z,1021.73
2023-01-23T08:57:25.195Z,1021.62
2023-01-23T08:58:25.182Z,1021.77
2023-01-23T08:59:25.171Z,1021.73
2023-01-23T09:00:25.156Z,1021.71
2023-01-23T09:01:25.225Z,1021.72
2023-01-23T09:02:25.154Z,1021.69
2023-01-23T09:03:25.135Z,1021.72
2023-01-23T09:04:25.098Z,1021.73
2023-01-23T09:05:25.091Z,1021.77
2023-01-23T09:06:25.067Z,1021.72
2023-01-23T09:07:25.068Z,1021.72
2023-01-23T09:08:25.051Z,1021.77
2023-01-23T09:09:25.058Z,1021.74
2023-01-23T09:10:25.968Z,1021.72
2023-01-23T09:11:25.007Z,1021.76
2023-01-23T09:12:24.990Z,1021.74
2023-01-23T09:13:24.998Z,1021.74
2023-01-23T09:14:24.957Z,1021.72
2023-01-23T09:15:24.952Z,1021.78
2023-01-23T09:16:24.981Z,1021.75
2023-01-23T09:17:24.930Z,1021.73
2023-01-23T09:18:24.917Z,1021.79
2023-01-23T09:19:24.900Z,1021.78
2023-01-23T09:20:24.909Z,1021.78
2023-01-23T09:21:24.876Z,1021.80
2023-01-23T09:22:24.881Z,1021.80
2023-01-23T09:23:24.855Z,1021.80
2023-01-23T09:24:24.834Z,1021.80
2023-01-23T09:25:24.824Z,1021.83
2023-01-23T09:26:24.823Z,1021.82
2023-01-23T09:27:24.797Z,1021.84
2023-01-23T09:28:24.796Z,1021.86
2023-01-23T09:29:24.759Z,1021.90
2023-01-23T09:30:24.934Z,1021.84
2023-01-23T09:31:24.761Z,1021.88
2023-01-23T09:32:24.734Z,1021.88
2023-01-23T09:33:24.724Z,1021.88
2023-01-23T09:34:24.703Z,1021.92
2023-01-23T09:35:24.696Z,1021.86
2023-01-23T09:36:41.346Z,1021.85
2023-01-23T09:37:25.662Z,1021.80
2023-01-23T09:38:24.679Z,1021.83
2023-01-23T09:39:24.631Z,1021.87
2023-01-23T09:40:24.621Z,1021.84
2023-01-23T09:41:24.601Z,1021.85
2023-01-23T09:42:24.592Z,1021.82
2023-01-23T09:43:24.596Z,1021.84
2023-01-23T09:44:24.576Z,1021.76
2023-01-23T09:45:24.552Z,1021.77
2023-01-23T09:46:24.552Z,1021.81
2023-01-23T09:47:24.520Z,1021.79
2023-01-23T09:48:24.540Z,1021.80
2023-01-23T09:49:24.501Z,1021.83
2023-01-23T09:50:24.490Z,1021.81
2023-01-23T09:51:24.534Z,1021.81
2023-01-23T09:52:24.468Z,1021.80
2023-01-23T09:53:24.465Z,1021.84
2023-01-23T09:54:24.436Z,1021.79
2023-01-23T09:55:24.418Z,1021.82
2023-01-23T09:56:24.415Z,1021.73
2023-01-23T09:57:24.407Z,1021.77
2023-01-23T09:58:24.398Z,1021.72
2023-01-23T09:59:24.371Z,1021.78
2023-01-23T10:00:24.354Z,1021.69
2023-01-23T10:01:24.366Z,1021.67
2023-01-23T10:02:26.746Z,1021.70
2023-01-23T10:03:24.326Z,1021.70
2023-01-23T10:04:24.307Z,1021.68
2023-01-23T10:05:24.295Z,1021.70
2023-01-23T10:06:24.277Z,1021.70
2023-01-23T10:07:24.255Z,1021.67
2023-01-23T10:08:24.266Z,1021.70
2023-01-23T10:09:24.234Z,1021.73
2023-01-23T10:10:24.515Z,1021.74
2023-01-23T10:11:24.218Z,1021.72
2023-01-23T10:12:24.202Z,1021.74
2023-01-23T10:13:24.193Z,1021.69
2023-01-23T10:14:24.206Z,1021.66
2023-01-23T10:15:24.154Z,1021.67
2023-01-23T10:16:24.195Z,1021.60
2023-01-23T10:17:24.210Z,1021.53
2023-01-23T10:18:24.131Z,1021.56
2023-01-23T10:19:24.113Z,1021.60
2023-01-23T10:20:24.123Z,1021.54
2023-01-23T10:21:24.075Z,1021.60
2023-01-23T10:22:24.064Z,1021.62
2023-01-23T10:23:24.078Z,1021.62
2023-01-23T10:24:24.042Z,1021.65
2023-01-23T10:25:24.021Z,1021.64
2023-01-23T10:26:24.016Z,1021.58
2023-01-23T10:27:24.009Z,1021.46
2023-01-23T10:28:24.006Z,1021.55
2023-01-23T10:29:23.971Z,1021.51
2023-01-23T10:30:24.287Z,1021.47
2023-01-23T10:31:24.179Z,1021.49
2023-01-23T10:32:23.938Z,1021.46
2023-01-23T10:33:23.940Z,1021.47
2023-01-23T10:34:23.924Z,1021.47
2023-01-23T10:35:23.887Z,1021.47
2023-01-23T10:36:24.367Z,1021.44
2023-01-23T10:37:23.873Z,1021.43
2023-01-23T10:38:23.876Z,1021.47
2023-01-23T10:39:23.847Z,1021.45
2023-01-23T10:40:23.832Z,1021.47
2023-01-23T10:41:23.822Z,1021.46
2023-01-23T10:42:23.797Z,1021.46
2023-01-23T10:43:23.799Z,1021.46
2023-01-23T10:44:23.778Z,1021.43
2023-01-23T10:45:23.757Z,1021.42
2023-01-23T10:46:23.847Z,1021.44
2023-01-23T10:47:23.782Z,1021.42
2023-01-23T10:48:23.737Z,1021.41
2023-01-23T10:49:23.705Z,1021.47
2023-01-23T10:50:23.751Z,1021.51
2023-01-23T10:51:23.792Z,1021.50
2023-01-23T10:52:23.680Z,1021.51
2023-01-23T10:53:23.672Z,1021.55
2023-01-23T10:54:31.723Z,1021.55
2023-01-23T10:55:24.658Z,1021.60
2023-01-23T10:56:23.677Z,1021.57
2023-01-23T10:57:23.603Z,1021.51
2023-01-23T10:58:23.607Z,1021.52
2023-01-23T10:59:23.584Z,1021.51
2023-01-23T11:00:23.567Z,1021.51
2023-01-23T11:01:23.582Z,1021.49
2023-01-23T11:02:23.702Z,1021.51
2023-01-23T11:03:23.534Z,1021.56
2023-01-23T11:04:23.525Z,1021.58
2023-01-23T11:05:23.495Z,1021.56
2023-01-23T11:06:23.492Z,1021.56
2023-01-23T11:07:23.493Z,1021.63
2023-01-23T11:08:23.472Z,1021.55
2023-01-23T11:09:23.441Z,1021.48
2023-01-23T11:10:23.456Z,1021.54
2023-01-23T11:11:23.420Z,1021.60
2023-01-23T11:12:23.420Z,1021.61
2023-01-23T11:13:23.408Z,1021.59
2023-01-23T11:14:23.388Z,1021.57
2023-01-23T11:15:23.732Z,1021.49
2023-01-23T11:16:23.542Z,1021.55
2023-01-23T11:17:23.358Z,1021.57
2023-01-23T11:18:23.340Z,1021.49
2023-01-23T11:19:23.314Z,1021.48
2023-01-23T11:20:23.310Z,1021.54
2023-01-23T11:21:23.309Z,1021.55
2023-01-23T11:22:23.279Z,1021.54
2023-01-23T11:23:23.270Z,1021.59
2023-01-23T11:24:37.799Z,1021.55
2023-01-23T11:25:24.237Z,1021.59
2023-01-23T11:26:23.229Z,1021.58
2023-01-23T11:27:23.206Z,1021.62
2023-01-23T11:28:23.270Z,1021.58
2023-01-23T11:29:23.177Z,1021.56
2023-01-23T11:30:23.177Z,1021.60
2023-01-23T11:31:23.290Z,1021.57
2023-01-23T11:32:23.278Z,1021.59
2023-01-23T11:33:23.148Z,1021.53
2023-01-23T11:34:23.125Z,1021.47
2023-01-23T11:35:23.675Z,1021.58
2023-01-23T11:36:23.097Z,1021.56
2023-01-23T11:37:23.075Z,1021.59
2023-01-23T11:38:30.556Z,1021.68
2023-01-23T11:39:24.055Z,1021.73
2023-01-23T11:40:23.060Z,1021.68
2023-01-23T11:41:23.104Z,1021.77
2023-01-23T11:42:23.019Z,1021.72
2023-01-23T11:43:23.016Z,1021.72
2023-01-23T11:44:23.648Z,1021.67
2023-01-23T11:45:22.982Z,1021.65
2023-01-23T11:46:23.022Z,1021.64
2023-01-23T11:47:22.964Z,1021.62
2023-01-23T11:48:22.955Z,1021.59
2023-01-23T11:49:22.934Z,1021.64
2023-01-23T11:50:22.916Z,1021.59
2023-01-23T11:51:22.985Z,1021.62
2023-01-23T11:52:22.894Z,1021.57
2023-01-23T11:53:30.661Z,1021.57
2023-01-23T11:54:23.882Z,1021.57
2023-01-23T11:55:23.297Z,1021.59
2023-01-23T11:56:22.831Z,1021.51
2023-01-23T11:57:22.831Z,1021.52
2023-01-23T11:58:26.663Z,1021.51
2023-01-23T11:59:22.799Z,1021.49
2023-01-23T12:00:23.106Z,1021.45
2023-01-23T12:01:22.774Z,1021.48
2023-01-23T12:02:22.792Z,1021.48
2023-01-23T12:03:22.764Z,1021.47
2023-01-23T12:04:22.733Z,1021.49
2023-01-23T12:05:23.136Z,1021.46